sensor_id;sensor_type;location;lat;lon;timestamp;temperature;humidity
69715;HTU21D;56981;53.532;49.398;2022-10-28T00:01:11;2.21;86.90
69715;HTU21D;56981;53.532;49.398;2022-10-28T00:03:42;2.19;86.61
69715;HTU21D;56981;53.532;49.398;2022-10-28T00:06:15;2.21;86.93
69715;HTU21D;56981;53.532;49.398;2022-10-28T00:08:41;2.23;86.64
69715;HTU21D;56981;53.532;49.398;2022-10-28T00:11:16;2.21;86.92
69715;HTU21D;56981;53.532;49.398;2022-10-28T00:13:44;2.26;86.32
69715;HTU21D;56981;53.532;49.398;2022-10-28T00:16:13;2.29;86.34
69715;HTU21D;56981;53.532;49.398;2022-10-28T00:18:41;2.26;86.09
69715;HTU21D;56981;53.532;49.398;2022-10-28T00:21:27;2.27;85.66
69715;HTU21D;56981;53.532;49.398;2022-10-28T00:23:54;2.26;86.07
69715;HTU21D;56981;53.532;49.398;2022-10-28T00:26:24;2.30;85.99
69715;HTU21D;56981;53.532;49.398;2022-10-28T00:28:55;2.35;85.58
69715;HTU21D;56981;53.532;49.398;2022-10-28T00:31:23;2.34;85.51
69715;HTU21D;56981;53.532;49.398;2022-10-28T00:33:50;2.32;86.34
69715;HTU21D;56981;53.532;49.398;2022-10-28T00:36:18;2.36;86.28
69715;HTU21D;56981;53.532;49.398;2022-10-28T00:38:47;2.36;86.14
69715;HTU21D;56981;53.532;49.398;2022-10-28T00:41:22;2.35;85.67
69715;HTU21D;56981;53.532;49.398;2022-10-28T00:43:51;2.35;85.67
69715;HTU21D;56981;53.532;49.398;2022-10-28T00:46:29;2.37;86.13
69715;HTU21D;56981;53.532;49.398;2022-10-28T00:49:03;2.37;85.70
69715;HTU21D;56981;53.532;49.398;2022-10-28T00:51:31;2.35;85.54
69715;HTU21D;56981;53.532;49.398;2022-10-28T00:53:58;2.37;85.34
69715;HTU21D;56981;53.532;49.398;2022-10-28T00:56:27;2.36;85.91
69715;HTU21D;56981;53.532;49.398;2022-10-28T00:58:58;2.36;85.60
69715;HTU21D;56981;53.532;49.398;2022-10-28T01:01:25;2.38;85.79
69715;HTU21D;56981;53.532;49.398;2022-10-28T01:03:53;2.41;85.48
69715;HTU21D;56981;53.532;49.398;2022-10-28T01:06:20;2.42;85.55
69715;HTU21D;56981;53.532;49.398;2022-10-28T01:08:47;2.40;85.65
69715;HTU21D;56981;53.532;49.398;2022-10-28T01:14:15;2.38;85.45
69715;HTU21D;56981;53.532;49.398;2022-10-28T01:22:45;2.38;85.45
69715;HTU21D;56981;53.532;49.398;2022-10-28T01:25:31;2.41;85.74
69715;HTU21D;56981;53.532;49.398;2022-10-28T01:33:31;2.37;86.02
69715;HTU21D;56981;53.532;49.398;2022-10-28T01:38:37;2.40;85.84
69715;HTU21D;56981;53.532;49.398;2022-10-28T01:43:54;2.40;85.59
69715;HTU21D;56981;53.532;49.398;2022-10-28T01:46:45;2.41;86.78
69715;HTU21D;56981;53.532;49.398;2022-10-28T01:51:52;2.53;85.30
69715;HTU21D;56981;53.532;49.398;2022-10-28T01:54:23;2.58;85.06
69715;HTU21D;56981;53.532;49.398;2022-10-28T01:56:52;2.65;86.91
69715;HTU21D;56981;53.532;49.398;2022-10-28T01:59:22;2.70;85.35
69715;HTU21D;56981;53.532;49.398;2022-10-28T02:01:50;2.75;84.53
69715;HTU21D;56981;53.532;49.398;2022-10-28T02:04:16;2.68;84.54
69715;HTU21D;56981;53.532;49.398;2022-10-28T02:06:45;2.66;84.34
69715;HTU21D;56981;53.532;49.398;2022-10-28T02:12:17;2.65;84.21
69715;HTU21D;56981;53.532;49.398;2022-10-28T02:17:35;2.74;83.55
69715;HTU21D;56981;53.532;49.398;2022-10-28T02:20:12;2.79;83.02
69715;HTU21D;56981;53.532;49.398;2022-10-28T02:22:49;2.78;83.81
69715;HTU21D;56981;53.532;49.398;2022-10-28T02:28:17;2.73;83.37
69715;HTU21D;56981;53.532;49.398;2022-10-28T02:30:54;2.76;83.42
69715;HTU21D;56981;53.532;49.398;2022-10-28T02:33:26;2.80;82.98
69715;HTU21D;56981;53.532;49.398;2022-10-28T02:38:38;2.85;82.55
69715;HTU21D;56981;53.532;49.398;2022-10-28T02:41:16;2.90;82.00
69715;HTU21D;56981;53.532;49.398;2022-10-28T02:43:44;2.90;82.81
69715;HTU21D;56981;53.532;49.398;2022-10-28T02:46:13;2.93;82.65
69715;HTU21D;56981;53.532;49.398;2022-10-28T02:48:43;2.93;82.63
69715;HTU21D;56981;53.532;49.398;2022-10-28T02:51:17;2.89;82.71
69715;HTU21D;56981;53.532;49.398;2022-10-28T02:54:03;2.88;83.51
69715;HTU21D;56981;53.532;49.398;2022-10-28T02:56:34;2.96;83.26
69715;HTU21D;56981;53.532;49.398;2022-10-28T02:59:01;2.90;84.19
69715;HTU21D;56981;53.532;49.398;2022-10-28T03:01:28;2.94;83.51
69715;HTU21D;56981;53.532;49.398;2022-10-28T03:03:54;2.91;84.07
69715;HTU21D;56981;53.532;49.398;2022-10-28T03:06:20;2.88;84.23
69715;HTU21D;56981;53.532;49.398;2022-10-28T03:08:46;2.87;84.51
69715;HTU21D;56981;53.532;49.398;2022-10-28T03:11:12;2.87;84.62
69715;HTU21D;56981;53.532;49.398;2022-10-28T03:13:38;2.84;84.67
69715;HTU21D;56981;53.532;49.398;2022-10-28T03:16:04;2.80;84.14
69715;HTU21D;56981;53.532;49.398;2022-10-28T03:18:30;2.76;84.40
69715;HTU21D;56981;53.532;49.398;2022-10-28T03:20:56;2.78;84.38
69715;HTU21D;56981;53.532;49.398;2022-10-28T03:23:22;2.70;84.37
69715;HTU21D;56981;53.532;49.398;2022-10-28T03:25:48;2.67;84.69
69715;HTU21D;56981;53.532;49.398;2022-10-28T03:28:14;2.65;84.70
69715;HTU21D;56981;53.532;49.398;2022-10-28T03:30:41;2.64;84.87
69715;HTU21D;56981;53.532;49.398;2022-10-28T03:33:07;2.67;85.38
69715;HTU21D;56981;53.532;49.398;2022-10-28T03:35:33;2.68;85.44
69715;HTU21D;56981;53.532;49.398;2022-10-28T03:37:59;2.64;85.48
69715;HTU21D;56981;53.532;49.398;2022-10-28T03:40:25;2.62;85.33
69715;HTU21D;56981;53.532;49.398;2022-10-28T03:42:51;2.66;85.42
69715;HTU21D;56981;53.532;49.398;2022-10-28T03:45:17;2.64;85.55
69715;HTU21D;56981;53.532;49.398;2022-10-28T03:47:43;2.65;85.51
69715;HTU21D;56981;53.532;49.398;2022-10-28T03:50:09;2.64;85.51
69715;HTU21D;56981;53.532;49.398;2022-10-28T03:52:36;2.62;86.03
69715;HTU21D;56981;53.532;49.398;2022-10-28T03:55:02;2.57;85.92
69715;HTU21D;56981;53.532;49.398;2022-10-28T03:57:32;2.64;86.09
69715;HTU21D;56981;53.532;49.398;2022-10-28T03:59:58;2.66;85.84
69715;HTU21D;56981;53.532;49.398;2022-10-28T04:02:24;2.66;85.71
69715;HTU21D;56981;53.532;49.398;2022-10-28T04:04:51;2.65;85.78
69715;HTU21D;56981;53.532;49.398;2022-10-28T04:07:17;2.66;85.87
69715;HTU21D;56981;53.532;49.398;2022-10-28T04:09:43;2.69;86.24
69715;HTU21D;56981;53.532;49.398;2022-10-28T04:12:10;2.69;86.17
69715;HTU21D;56981;53.532;49.398;2022-10-28T04:14:36;2.76;85.55
69715;HTU21D;56981;53.532;49.398;2022-10-28T04:17:02;2.75;85.15
69715;HTU21D;56981;53.532;49.398;2022-10-28T04:19:28;2.80;84.84
69715;HTU21D;56981;53.532;49.398;2022-10-28T04:21:54;2.83;85.09
69715;HTU21D;56981;53.532;49.398;2022-10-28T04:24:20;2.84;85.52
69715;HTU21D;56981;53.532;49.398;2022-10-28T04:26:46;2.93;85.25
69715;HTU21D;56981;53.532;49.398;2022-10-28T04:29:12;2.97;84.32
69715;HTU21D;56981;53.532;49.398;2022-10-28T04:31:38;2.91;84.10
69715;HTU21D;56981;53.532;49.398;2022-10-28T04:34:04;2.95;84.48
69715;HTU21D;56981;53.532;49.398;2022-10-28T04:36:30;2.95;84.51
69715;HTU21D;56981;53.532;49.398;2022-10-28T04:38:56;2.98;84.19
69715;HTU21D;56981;53.532;49.398;2022-10-28T04:41:22;2.98;83.63
69715;HTU21D;56981;53.532;49.398;2022-10-28T04:43:48;2.96;82.55
69715;HTU21D;56981;53.532;49.398;2022-10-28T04:46:14;2.93;82.87
69715;HTU21D;56981;53.532;49.398;2022-10-28T04:48:40;2.94;82.86
69715;HTU21D;56981;53.532;49.398;2022-10-28T04:51:06;2.96;82.81
69715;HTU21D;56981;53.532;49.398;2022-10-28T04:53:33;2.96;82.52
69715;HTU21D;56981;53.532;49.398;2022-10-28T04:55:59;2.95;83.31
69715;HTU21D;56981;53.532;49.398;2022-10-28T04:58:26;2.96;82.84
69715;HTU21D;56981;53.532;49.398;2022-10-28T05:00:52;2.99;82.66
69715;HTU21D;56981;53.532;49.398;2022-10-28T05:03:18;3.00;82.21
69715;HTU21D;56981;53.532;49.398;2022-10-28T05:05:44;3.01;82.90
69715;HTU21D;56981;53.532;49.398;2022-10-28T05:08:10;3.05;81.65
69715;HTU21D;56981;53.532;49.398;2022-10-28T05:10:36;3.09;82.46
69715;HTU21D;56981;53.532;49.398;2022-10-28T05:13:02;3.18;82.74
69715;HTU21D;56981;53.532;49.398;2022-10-28T05:15:28;3.30;82.07
69715;HTU21D;56981;53.532;49.398;2022-10-28T05:17:56;3.38;81.86
69715;HTU21D;56981;53.532;49.398;2022-10-28T05:20:22;3.48;81.53
69715;HTU21D;56981;53.532;49.398;2022-10-28T05:22:51;3.61;80.78
69715;HTU21D;56981;53.532;49.398;2022-10-28T05:25:18;3.59;79.43
69715;HTU21D;56981;53.532;49.398;2022-10-28T05:27:45;3.55;79.46
69715;HTU21D;56981;53.532;49.398;2022-10-28T05:30:12;3.55;80.33
69715;HTU21D;56981;53.532;49.398;2022-10-28T05:32:38;3.54;80.38
69715;HTU21D;56981;53.532;49.398;2022-10-28T05:35:05;3.58;80.32
69715;HTU21D;56981;53.532;49.398;2022-10-28T05:37:32;3.55;80.30
69715;HTU21D;56981;53.532;49.398;2022-10-28T05:39:58;3.47;80.43
69715;HTU21D;56981;53.532;49.398;2022-10-28T05:42:24;3.41;81.38
69715;HTU21D;56981;53.532;49.398;2022-10-28T05:44:50;3.41;81.70
69715;HTU21D;56981;53.532;49.398;2022-10-28T05:47:16;3.44;81.71
69715;HTU21D;56981;53.532;49.398;2022-10-28T05:49:45;3.46;81.74
69715;HTU21D;56981;53.532;49.398;2022-10-28T05:52:11;3.38;81.68
69715;HTU21D;56981;53.532;49.398;2022-10-28T05:54:37;3.46;81.48
69715;HTU21D;56981;53.532;49.398;2022-10-28T05:57:03;3.50;81.15
69715;HTU21D;56981;53.532;49.398;2022-10-28T05:59:29;3.55;81.16
69715;HTU21D;56981;53.532;49.398;2022-10-28T06:01:55;3.62;81.71
69715;HTU21D;56981;53.532;49.398;2022-10-28T06:04:21;3.69;80.24
69715;HTU21D;56981;53.532;49.398;2022-10-28T06:06:47;3.74;79.41
69715;HTU21D;56981;53.532;49.398;2022-10-28T06:09:13;3.78;79.68
69715;HTU21D;56981;53.532;49.398;2022-10-28T06:11:50;3.85;80.02
69715;HTU21D;56981;53.532;49.398;2022-10-28T06:14:16;4.02;80.64
69715;HTU21D;56981;53.532;49.398;2022-10-28T06:16:42;4.02;79.82
69715;HTU21D;56981;53.532;49.398;2022-10-28T06:19:09;4.07;78.82
69715;HTU21D;56981;53.532;49.398;2022-10-28T06:21:35;4.14;79.24
69715;HTU21D;56981;53.532;49.398;2022-10-28T06:24:01;4.20;78.49
69715;HTU21D;56981;53.532;49.398;2022-10-28T06:26:27;4.28;78.81
69715;HTU21D;56981;53.532;49.398;2022-10-28T06:28:53;4.34;78.97
69715;HTU21D;56981;53.532;49.398;2022-10-28T06:31:19;4.32;79.32
69715;HTU21D;56981;53.532;49.398;2022-10-28T06:33:46;4.30;77.92
69715;HTU21D;56981;53.532;49.398;2022-10-28T06:36:12;4.32;79.03
69715;HTU21D;56981;53.532;49.398;2022-10-28T06:38:38;4.39;77.26
69715;HTU21D;56981;53.532;49.398;2022-10-28T06:41:04;4.34;77.29
69715;HTU21D;56981;53.532;49.398;2022-10-28T06:43:30;4.37;77.60
69715;HTU21D;56981;53.532;49.398;2022-10-28T06:46:00;4.38;78.01
69715;HTU21D;56981;53.532;49.398;2022-10-28T06:48:32;4.34;77.26
69715;HTU21D;56981;53.532;49.398;2022-10-28T06:50:59;4.34;77.06
69715;HTU21D;56981;53.532;49.398;2022-10-28T06:53:26;4.37;77.65
69715;HTU21D;56981;53.532;49.398;2022-10-28T06:55:54;4.32;77.55
69715;HTU21D;56981;53.532;49.398;2022-10-28T06:58:20;4.33;77.53
69715;HTU21D;56981;53.532;49.398;2022-10-28T07:00:46;4.35;76.07
69715;HTU21D;56981;53.532;49.398;2022-10-28T07:03:12;4.38;76.91
69715;HTU21D;56981;53.532;49.398;2022-10-28T07:05:39;4.36;75.50
69715;HTU21D;56981;53.532;49.398;2022-10-28T07:08:05;4.32;74.54
69715;HTU21D;56981;53.532;49.398;2022-10-28T07:10:31;4.33;74.51
69715;HTU21D;56981;53.532;49.398;2022-10-28T07:12:57;4.36;73.61
69715;HTU21D;56981;53.532;49.398;2022-10-28T07:15:24;4.36;73.90
69715;HTU21D;56981;53.532;49.398;2022-10-28T07:17:54;4.33;74.28
69715;HTU21D;56981;53.532;49.398;2022-10-28T07:20:21;4.37;75.23
69715;HTU21D;56981;53.532;49.398;2022-10-28T07:22:48;4.38;74.29
69715;HTU21D;56981;53.532;49.398;2022-10-28T07:25:19;4.43;74.21
69715;HTU21D;56981;53.532;49.398;2022-10-28T07:27:45;4.31;74.85
69715;HTU21D;56981;53.532;49.398;2022-10-28T07:30:15;4.37;74.41
69715;HTU21D;56981;53.532;49.398;2022-10-28T07:32:41;4.48;74.44
69715;HTU21D;56981;53.532;49.398;2022-10-28T07:35:07;4.46;74.45
69715;HTU21D;56981;53.532;49.398;2022-10-28T07:37:33;4.49;74.09
69715;HTU21D;56981;53.532;49.398;2022-10-28T07:39:59;4.43;73.08
69715;HTU21D;56981;53.532;49.398;2022-10-28T07:42:26;4.46;73.78
69715;HTU21D;56981;53.532;49.398;2022-10-28T07:44:52;4.42;73.80
69715;HTU21D;56981;53.532;49.398;2022-10-28T07:47:18;4.41;73.83
69715;HTU21D;56981;53.532;49.398;2022-10-28T07:49:46;4.39;73.38
69715;HTU21D;56981;53.532;49.398;2022-10-28T07:52:12;4.43;72.66
69715;HTU21D;56981;53.532;49.398;2022-10-28T07:54:38;4.42;73.21
69715;HTU21D;56981;53.532;49.398;2022-10-28T07:57:04;4.41;72.61
69715;HTU21D;56981;53.532;49.398;2022-10-28T07:59:30;4.46;72.56
69715;HTU21D;56981;53.532;49.398;2022-10-28T08:01:56;4.56;73.57
69715;HTU21D;56981;53.532;49.398;2022-10-28T08:04:22;4.51;72.80
69715;HTU21D;56981;53.532;49.398;2022-10-28T08:06:48;4.56;73.15
69715;HTU21D;56981;53.532;49.398;2022-10-28T08:09:15;4.61;73.14
69715;HTU21D;56981;53.532;49.398;2022-10-28T08:11:41;4.69;71.67
69715;HTU21D;56981;53.532;49.398;2022-10-28T08:14:07;4.77;72.13
69715;HTU21D;56981;53.532;49.398;2022-10-28T08:16:33;4.80;71.89
69715;HTU21D;56981;53.532;49.398;2022-10-28T08:18:59;4.90;71.29
69715;HTU21D;56981;53.532;49.398;2022-10-28T08:21:25;4.95;69.90
69715;HTU21D;56981;53.532;49.398;2022-10-28T08:23:53;4.95;70.26
69715;HTU21D;56981;53.532;49.398;2022-10-28T08:26:19;4.88;71.71
69715;HTU21D;56981;53.532;49.398;2022-10-28T08:28:46;4.90;70.41
69715;HTU21D;56981;53.532;49.398;2022-10-28T08:31:12;4.89;69.45
69715;HTU21D;56981;53.532;49.398;2022-10-28T08:33:40;4.84;69.61
69715;HTU21D;56981;53.532;49.398;2022-10-28T08:36:09;4.82;69.81
69715;HTU21D;56981;53.532;49.398;2022-10-28T08:38:36;4.77;70.37
69715;HTU21D;56981;53.532;49.398;2022-10-28T08:49:10;4.88;72.39
69715;HTU21D;56981;53.532;49.398;2022-10-28T08:51:45;4.88;71.48
69715;HTU21D;56981;53.532;49.398;2022-10-28T08:54:19;4.84;71.59
69715;HTU21D;56981;53.532;49.398;2022-10-28T08:56:48;4.83;72.16
69715;HTU21D;56981;53.532;49.398;2022-10-28T08:59:20;4.87;71.47
69715;HTU21D;56981;53.532;49.398;2022-10-28T09:01:55;4.91;71.62
69715;HTU21D;56981;53.532;49.398;2022-10-28T09:04:36;4.92;71.58
69715;HTU21D;56981;53.532;49.398;2022-10-28T09:07:05;5.02;71.66
69715;HTU21D;56981;53.532;49.398;2022-10-28T09:09:32;5.06;71.32
69715;HTU21D;56981;53.532;49.398;2022-10-28T09:17:19;5.12;71.81
69715;HTU21D;56981;53.532;49.398;2022-10-28T09:20:02;5.16;71.13
69715;HTU21D;56981;53.532;49.398;2022-10-28T09:36:02;5.25;68.15
69715;HTU21D;56981;53.532;49.398;2022-10-28T09:41:21;5.26;69.10
69715;HTU21D;56981;53.532;49.398;2022-10-28T09:43:53;5.30;68.46
69715;HTU21D;56981;53.532;49.398;2022-10-28T09:46:23;5.24;68.91
69715;HTU21D;56981;53.532;49.398;2022-10-28T09:48:52;5.25;69.99
69715;HTU21D;56981;53.532;49.398;2022-10-28T09:53:54;5.33;69.94
69715;HTU21D;56981;53.532;49.398;2022-10-28T09:56:21;5.24;69.32
69715;HTU21D;56981;53.532;49.398;2022-10-28T09:58:47;5.21;70.75
69715;HTU21D;56981;53.532;49.398;2022-10-28T10:01:16;5.22;69.67
69715;HTU21D;56981;53.532;49.398;2022-10-28T10:03:43;5.17;69.28
69715;HTU21D;56981;53.532;49.398;2022-10-28T10:06:18;5.22;70.31
69715;HTU21D;56981;53.532;49.398;2022-10-28T10:08:45;5.23;69.75
69715;HTU21D;56981;53.532;49.398;2022-10-28T10:11:35;5.27;68.66
69715;HTU21D;56981;53.532;49.398;2022-10-28T10:14:08;5.23;68.64
69715;HTU21D;56981;53.532;49.398;2022-10-28T10:16:56;5.27;68.34
69715;HTU21D;56981;53.532;49.398;2022-10-28T10:19:24;5.32;69.91
69715;HTU21D;56981;53.532;49.398;2022-10-28T10:21:52;5.25;68.68
69715;HTU21D;56981;53.532;49.398;2022-10-28T10:24:22;5.31;68.91
69715;HTU21D;56981;53.532;49.398;2022-10-28T10:26:49;5.34;69.71
69715;HTU21D;56981;53.532;49.398;2022-10-28T10:29:15;5.33;68.77
69715;HTU21D;56981;53.532;49.398;2022-10-28T10:31:42;5.33;68.55
69715;HTU21D;56981;53.532;49.398;2022-10-28T10:34:22;5.36;68.95
69715;HTU21D;56981;53.532;49.398;2022-10-28T10:36:50;5.36;68.52
69715;HTU21D;56981;53.532;49.398;2022-10-28T10:39:23;5.35;67.99
69715;HTU21D;56981;53.532;49.398;2022-10-28T10:41:53;5.39;68.46
69715;HTU21D;56981;53.532;49.398;2022-10-28T10:49:33;5.54;68.13
69715;HTU21D;56981;53.532;49.398;2022-10-28T10:52:02;5.52;68.23
69715;HTU21D;56981;53.532;49.398;2022-10-28T10:54:31;5.50;69.03
69715;HTU21D;56981;53.532;49.398;2022-10-28T10:57:16;5.46;69.35
69715;HTU21D;56981;53.532;49.398;2022-10-28T10:59:45;5.45;69.52
69715;HTU21D;56981;53.532;49.398;2022-10-28T11:04:50;5.48;69.70
69715;HTU21D;56981;53.532;49.398;2022-10-28T11:07:16;5.50;69.90
69715;HTU21D;56981;53.532;49.398;2022-10-28T11:09:46;5.41;71.26
69715;HTU21D;56981;53.532;49.398;2022-10-28T11:12:34;5.42;70.45
69715;HTU21D;56981;53.532;49.398;2022-10-28T11:17:59;5.31;71.71
69715;HTU21D;56981;53.532;49.398;2022-10-28T11:20:57;5.25;71.86
69715;HTU21D;56981;53.532;49.398;2022-10-28T11:26:14;5.04;73.21
69715;HTU21D;56981;53.532;49.398;2022-10-28T11:37:29;4.84;74.73
69715;HTU21D;56981;53.532;49.398;2022-10-28T11:45:41;4.84;75.19
69715;HTU21D;56981;53.532;49.398;2022-10-28T11:48:16;4.86;75.55
69715;HTU21D;56981;53.532;49.398;2022-10-28T11:53:43;4.97;76.03
69715;HTU21D;56981;53.532;49.398;2022-10-28T11:56:34;4.87;76.64
69715;HTU21D;56981;53.532;49.398;2022-10-28T12:05:18;4.86;77.48
69715;HTU21D;56981;53.532;49.398;2022-10-28T12:16:12;4.75;77.91
69715;HTU21D;56981;53.532;49.398;2022-10-28T12:18:55;4.68;79.08
69715;HTU21D;56981;53.532;49.398;2022-10-28T12:21:58;4.64;79.44
69715;HTU21D;56981;53.532;49.398;2022-10-28T12:24:29;4.63;80.20
69715;HTU21D;56981;53.532;49.398;2022-10-28T12:27:02;4.60;80.10
69715;HTU21D;56981;53.532;49.398;2022-10-28T12:29:36;4.58;80.07
69715;HTU21D;56981;53.532;49.398;2022-10-28T12:34:41;4.57;80.33
69715;HTU21D;56981;53.532;49.398;2022-10-28T12:37:12;4.59;80.52
69715;HTU21D;56981;53.532;49.398;2022-10-28T12:40:30;4.57;80.43
69715;HTU21D;56981;53.532;49.398;2022-10-28T12:42:34;4.57;80.76
69715;HTU21D;56981;53.532;49.398;2022-10-28T12:45:05;4.57;80.04
69715;HTU21D;56981;53.532;49.398;2022-10-28T12:47:40;4.58;80.17
69715;HTU21D;56981;53.532;49.398;2022-10-28T12:55:19;4.59;80.02
69715;HTU21D;56981;53.532;49.398;2022-10-28T12:58:09;4.59;79.53
69715;HTU21D;56981;53.532;49.398;2022-10-28T13:00:42;4.53;78.63
69715;HTU21D;56981;53.532;49.398;2022-10-28T13:03:13;4.52;79.84
69715;HTU21D;56981;53.532;49.398;2022-10-28T13:09:04;4.36;78.37
69715;HTU21D;56981;53.532;49.398;2022-10-28T13:11:40;4.30;78.76
69715;HTU21D;56981;53.532;49.398;2022-10-28T13:20:18;4.22;79.49
69715;HTU21D;56981;53.532;49.398;2022-10-28T13:23:04;4.20;79.52
69715;HTU21D;56981;53.532;49.398;2022-10-28T13:29:02;4.18;79.82
69715;HTU21D;56981;53.532;49.398;2022-10-28T13:31:44;4.18;80.15
69715;HTU21D;56981;53.532;49.398;2022-10-28T13:34:12;4.20;80.18
69715;HTU21D;56981;53.532;49.398;2022-10-28T13:36:41;4.26;80.11
69715;HTU21D;56981;53.532;49.398;2022-10-28T13:44:51;4.28;80.20
69715;HTU21D;56981;53.532;49.398;2022-10-28T13:47:32;4.27;79.83
69715;HTU21D;56981;53.532;49.398;2022-10-28T13:52:44;4.22;80.30
69715;HTU21D;56981;53.532;49.398;2022-10-28T13:57:43;4.29;80.28
69715;HTU21D;56981;53.532;49.398;2022-10-28T14:02:57;4.30;80.56
69715;HTU21D;56981;53.532;49.398;2022-10-28T14:05:48;4.34;80.47
69715;HTU21D;56981;53.532;49.398;2022-10-28T14:08:37;4.41;80.14
69715;HTU21D;56981;53.532;49.398;2022-10-28T14:11:07;4.45;79.95
69715;HTU21D;56981;53.532;49.398;2022-10-28T14:13:36;4.49;80.24
69715;HTU21D;56981;53.532;49.398;2022-10-28T14:16:22;4.41;80.56
69715;HTU21D;56981;53.532;49.398;2022-10-28T14:18:59;4.38;80.66
69715;HTU21D;56981;53.532;49.398;2022-10-28T14:21:49;4.44;80.04
69715;HTU21D;56981;53.532;49.398;2022-10-28T14:24:35;4.47;79.43
69715;HTU21D;56981;53.532;49.398;2022-10-28T14:29:33;4.47;80.08
69715;HTU21D;56981;53.532;49.398;2022-10-28T14:35:17;4.43;78.85
69715;HTU21D;56981;53.532;49.398;2022-10-28T14:50:50;4.37;81.30
69715;HTU21D;56981;53.532;49.398;2022-10-28T14:53:29;4.38;80.79
69715;HTU21D;56981;53.532;49.398;2022-10-28T14:56:03;4.36;81.45
69715;HTU21D;56981;53.532;49.398;2022-10-28T14:58:35;4.32;80.91
69715;HTU21D;56981;53.532;49.398;2022-10-28T15:04:01;4.28;82.45
69715;HTU21D;56981;53.532;49.398;2022-10-28T15:06:40;4.22;81.73
69715;HTU21D;56981;53.532;49.398;2022-10-28T15:09:29;4.19;82.25
69715;HTU21D;56981;53.532;49.398;2022-10-28T15:11:59;4.15;82.33
69715;HTU21D;56981;53.532;49.398;2022-10-28T15:16:55;4.07;82.99
69715;HTU21D;56981;53.532;49.398;2022-10-28T15:19:24;4.08;83.24
69715;HTU21D;56981;53.532;49.398;2022-10-28T15:22:22;4.09;83.84
69715;HTU21D;56981;53.532;49.398;2022-10-28T15:25:02;4.10;83.27
69715;HTU21D;56981;53.532;49.398;2022-10-28T15:27:36;4.12;83.41
69715;HTU21D;56981;53.532;49.398;2022-10-28T15:30:06;4.14;83.34
69715;HTU21D;56981;53.532;49.398;2022-10-28T15:32:38;4.17;84.23
69715;HTU21D;56981;53.532;49.398;2022-10-28T15:35:44;4.14;84.19
69715;HTU21D;56981;53.532;49.398;2022-10-28T15:38:31;4.14;83.94
69715;HTU21D;56981;53.532;49.398;2022-10-28T15:40:57;4.13;84.76
69715;HTU21D;56981;53.532;49.398;2022-10-28T15:43:26;4.12;84.63
69715;HTU21D;56981;53.532;49.398;2022-10-28T15:45:53;4.16;84.21
69715;HTU21D;56981;53.532;49.398;2022-10-28T15:48:25;4.19;85.02
69715;HTU21D;56981;53.532;49.398;2022-10-28T15:51:13;4.22;84.76
69715;HTU21D;56981;53.532;49.398;2022-10-28T15:53:46;4.24;84.75
69715;HTU21D;56981;53.532;49.398;2022-10-28T15:58:44;4.29;84.81
69715;HTU21D;56981;53.532;49.398;2022-10-28T16:04:00;4.27;85.13
69715;HTU21D;56981;53.532;49.398;2022-10-28T16:06:31;4.23;84.93
69715;HTU21D;56981;53.532;49.398;2022-10-28T16:11:42;4.22;85.73
69715;HTU21D;56981;53.532;49.398;2022-10-28T16:16:51;4.17;86.69
69715;HTU21D;56981;53.532;49.398;2022-10-28T16:19:29;4.21;86.46
69715;HTU21D;56981;53.532;49.398;2022-10-28T16:21:58;4.21;86.38
69715;HTU21D;56981;53.532;49.398;2022-10-28T16:24:24;4.27;86.14
69715;HTU21D;56981;53.532;49.398;2022-10-28T16:26:50;4.21;86.86
69715;HTU21D;56981;53.532;49.398;2022-10-28T16:29:17;4.18;87.08
69715;HTU21D;56981;53.532;49.398;2022-10-28T16:31:47;4.19;86.31
69715;HTU21D;56981;53.532;49.398;2022-10-28T16:34:15;4.23;86.48
69715;HTU21D;56981;53.532;49.398;2022-10-28T16:36:41;4.22;86.37
69715;HTU21D;56981;53.532;49.398;2022-10-28T16:39:11;4.16;86.18
69715;HTU21D;56981;53.532;49.398;2022-10-28T16:41:37;4.15;86.31
69715;HTU21D;56981;53.532;49.398;2022-10-28T16:44:16;4.09;86.94
69715;HTU21D;56981;53.532;49.398;2022-10-28T16:46:43;4.13;86.32
69715;HTU21D;56981;53.532;49.398;2022-10-28T16:49:09;4.19;87.12
69715;HTU21D;56981;53.532;49.398;2022-10-28T16:51:35;4.13;86.25
69715;HTU21D;56981;53.532;49.398;2022-10-28T16:54:01;4.12;86.59
69715;HTU21D;56981;53.532;49.398;2022-10-28T16:56:27;4.06;86.77
69715;HTU21D;56981;53.532;49.398;2022-10-28T16:58:53;4.04;87.00
69715;HTU21D;56981;53.532;49.398;2022-10-28T17:01:22;4.07;86.77
69715;HTU21D;56981;53.532;49.398;2022-10-28T17:03:48;4.05;85.99
69715;HTU21D;56981;53.532;49.398;2022-10-28T17:06:14;4.00;86.61
69715;HTU21D;56981;53.532;49.398;2022-10-28T17:08:44;3.98;87.64
69715;HTU21D;56981;53.532;49.398;2022-10-28T17:11:15;3.99;87.60
69715;HTU21D;56981;53.532;49.398;2022-10-28T17:13:41;3.99;87.74
69715;HTU21D;56981;53.532;49.398;2022-10-28T17:16:08;4.00;87.48
69715;HTU21D;56981;53.532;49.398;2022-10-28T17:18:34;4.00;87.75
69715;HTU21D;56981;53.532;49.398;2022-10-28T17:21:01;3.99;87.69
69715;HTU21D;56981;53.532;49.398;2022-10-28T17:23:28;4.02;87.96
69715;HTU21D;56981;53.532;49.398;2022-10-28T17:25:59;4.02;87.39
69715;HTU21D;56981;53.532;49.398;2022-10-28T17:28:25;4.01;87.70
69715;HTU21D;56981;53.532;49.398;2022-10-28T17:30:52;4.00;87.55
69715;HTU21D;56981;53.532;49.398;2022-10-28T17:33:18;3.94;87.89
69715;HTU21D;56981;53.532;49.398;2022-10-28T17:35:44;3.97;88.28
69715;HTU21D;56981;53.532;49.398;2022-10-28T17:38:10;3.94;87.89
69715;HTU21D;56981;53.532;49.398;2022-10-28T17:40:36;3.93;88.55
69715;HTU21D;56981;53.532;49.398;2022-10-28T17:43:03;3.93;88.43
69715;HTU21D;56981;53.532;49.398;2022-10-28T17:45:29;3.97;88.95
69715;HTU21D;56981;53.532;49.398;2022-10-28T17:47:55;3.93;88.59
69715;HTU21D;56981;53.532;49.398;2022-10-28T17:50:21;3.93;87.31
69715;HTU21D;56981;53.532;49.398;2022-10-28T17:52:48;3.94;89.05
69715;HTU21D;56981;53.532;49.398;2022-10-28T17:55:14;4.00;88.36
69715;HTU21D;56981;53.532;49.398;2022-10-28T17:57:40;3.98;87.55
69715;HTU21D;56981;53.532;49.398;2022-10-28T18:00:09;3.95;87.98
69715;HTU21D;56981;53.532;49.398;2022-10-28T18:02:35;4.05;88.45
69715;HTU21D;56981;53.532;49.398;2022-10-28T18:05:01;4.06;88.55
69715;HTU21D;56981;53.532;49.398;2022-10-28T18:07:28;4.07;88.22
69715;HTU21D;56981;53.532;49.398;2022-10-28T18:09:54;4.13;88.26
69715;HTU21D;56981;53.532;49.398;2022-10-28T18:12:20;4.20;87.95
69715;HTU21D;56981;53.532;49.398;2022-10-28T18:14:46;4.24;87.38
69715;HTU21D;56981;53.532;49.398;2022-10-28T18:17:12;4.26;86.95
69715;HTU21D;56981;53.532;49.398;2022-10-28T18:19:39;4.20;87.19
69715;HTU21D;56981;53.532;49.398;2022-10-28T18:22:05;4.24;87.67
69715;HTU21D;56981;53.532;49.398;2022-10-28T18:24:32;4.23;87.58
69715;HTU21D;56981;53.532;49.398;2022-10-28T18:26:58;4.28;86.87
69715;HTU21D;56981;53.532;49.398;2022-10-28T18:29:24;4.26;86.77
69715;HTU21D;56981;53.532;49.398;2022-10-28T18:31:50;4.23;86.51